Time;durP1;ratioP1;P1;durP2;ratioP2;P2;SDS_P1;SDS_P2;PMS_P1;PMS_P2;Temp;Humidity;BMP_temperature;BMP_pressure;BME280_temperature;BME280_humidity;BME280_pressure;Samples;Min_cycle;Max_cycle;Signal;HPM_P1;HPM_P2
2022/05/22 00:02:20;;;;;;;37.38;28.13;;;;;;;-150.07;100.00;67148.00;5008035;28;20116;-76
2022/05/22 00:04:46;;;;;;;38.30;28.40;;;;;;;-150.07;100.00;67148.00;5002382;28;20026;-77
2022/05/22 00:07:13;;;;;;;37.38;28.23;;;;;;;-150.07;100.00;67148.00;4997766;28;20084;-77
2022/05/22 00:09:40;;;;;;;36.08;28.05;;;;;;;-150.07;100.00;67148.00;5012866;28;20029;-77
2022/05/22 00:12:09;;;;;;;41.58;30.95;;;;;;;-150.07;100.00;67148.00;5013506;28;20379;-83
2022/05/22 00:14:37;;;;;;;36.80;29.88;;;;;;;-150.07;100.00;67148.00;5012570;28;20053;-77
2022/05/22 00:17:06;;;;;;;38.30;29.48;;;;;;;-150.07;100.00;67148.00;5013295;28;20017;-77
2022/05/22 00:19:33;;;;;;;40.40;28.90;;;;;;;-150.07;100.00;67148.00;5011871;28;20041;-76
2022/05/22 00:22:02;;;;;;;36.30;29.50;;;;;;;-150.07;100.00;67148.00;5013494;28;20328;-76
2022/05/22 00:24:31;;;;;;;36.75;28.77;;;;;;;-150.07;100.00;67148.00;5013949;28;20032;-76
2022/05/22 00:27:02;;;;;;;38.55;30.67;;;;;;;-150.07;100.00;67148.00;5011448;28;20416;-84
2022/05/22 00:29:29;;;;;;;41.70;29.67;;;;;;;-150.07;100.00;67148.00;5012564;28;20491;-76
2022/05/22 00:31:56;;;;;;;38.28;30.02;;;;;;;-150.07;100.00;67148.00;5012552;28;20034;-77
2022/05/22 00:34:24;;;;;;;37.22;30.52;;;;;;;-150.07;100.00;67148.00;5013146;28;20030;-77
2022/05/22 00:36:51;;;;;;;43.83;33.35;;;;;;;-150.07;100.00;67148.00;5011003;28;20026;-77
2022/05/22 00:39:18;;;;;;;43.03;32.75;;;;;;;-150.07;100.00;67148.00;5012760;28;20046;-77
2022/05/22 00:41:51;;;;;;;52.35;35.28;;;;;;;-150.07;100.00;67148.00;5009988;28;20491;-76
2022/05/22 00:44:19;;;;;;;39.17;31.42;;;;;;;-150.07;100.00;67148.00;5012540;28;20617;-79
2022/05/22 00:46:46;;;;;;;44.03;31.08;;;;;;;-150.07;100.00;67148.00;5012196;28;20058;-77
2022/05/22 00:49:22;;;;;;;38.15;29.67;;;;;;;-150.07;100.00;67148.00;5012210;28;20034;-78
2022/05/22 00:51:58;;;;;;;49.00;32.08;;;;;;;-150.07;100.00;67148.00;5012884;28;20081;-77
2022/05/22 00:54:40;;;;;;;46.50;31.02;;;;;;;-150.07;100.00;67148.00;5015704;28;20460;-78
2022/05/22 00:57:14;;;;;;;35.35;28.48;;;;;;;-150.07;100.00;67148.00;5006714;28;20021;-76
2022/05/22 00:59:51;;;;;;;37.45;29.48;;;;;;;-150.07;100.00;67148.00;5013005;28;20470;-77
2022/05/22 01:02:18;;;;;;;43.95;33.15;;;;;;;-150.07;100.00;67148.00;5011322;28;20097;-76
2022/05/22 01:04:49;;;;;;;47.95;30.63;;;;;;;-150.07;100.00;67148.00;5012761;28;20025;-79
2022/05/22 01:07:17;;;;;;;46.60;31.65;;;;;;;-150.07;100.00;67148.00;5011227;28;20506;-79
2022/05/22 01:09:44;;;;;;;47.13;31.05;;;;;;;-150.07;100.00;67148.00;5012810;28;20030;-78
2022/05/22 01:12:22;;;;;;;39.53;30.42;;;;;;;-150.07;100.00;67148.00;5011448;28;20044;-77
2022/05/22 01:14:52;;;;;;;39.97;27.88;;;;;;;-150.07;100.00;67148.00;4998796;28;20038;-76
2022/05/22 01:17:19;;;;;;;40.47;26.60;;;;;;;-150.07;100.00;67148.00;4992719;28;20031;-77
2022/05/22 01:20:01;;;;;;;26.88;20.50;;;;;;;-150.07;100.00;67148.00;5010620;28;20386;-77
2022/05/22 01:22:28;;;;;;;32.95;20.98;;;;;;;-150.07;100.00;67148.00;5014002;28;20073;-79
2022/05/22 01:24:55;;;;;;;24.25;18.77;;;;;;;-150.07;100.00;67148.00;5012202;28;20030;-78
2022/05/22 01:27:24;;;;;;;27.05;19.67;;;;;;;-150.07;100.00;67148.00;5014593;28;20801;-77
2022/05/22 01:29:51;;;;;;;37.63;21.77;;;;;;;-150.07;100.00;67148.00;5011794;28;20045;-77
2022/05/22 01:32:18;;;;;;;28.55;20.90;;;;;;;-150.07;100.00;67148.00;5012073;28;20038;-77
2022/05/22 01:34:45;;;;;;;25.25;19.52;;;;;;;-150.07;100.00;67148.00;5011257;28;20026;-77
2022/05/22 01:37:11;;;;;;;29.45;19.48;;;;;;;-150.07;100.00;67148.00;5025016;28;20041;-78
2022/05/22 01:39:38;;;;;;;30.15;22.67;;;;;;;-150.07;100.00;67148.00;5031613;28;20051;-77
2022/05/22 01:42:05;;;;;;;33.22;21.05;;;;;;;-150.07;100.00;67148.00;5031871;28;20029;-78
2022/05/22 01:44:32;;;;;;;31.23;21.08;;;;;;;-150.07;100.00;67148.00;5031930;28;20017;-78
2022/05/22 01:46:59;;;;;;;26.90;20.13;;;;;;;-150.07;100.00;67148.00;5009796;28;20478;-78
2022/05/22 01:49:26;;;;;;;26.95;19.80;;;;;;;-150.07;100.00;67148.00;5012139;28;20109;-77
2022/05/22 01:51:53;;;;;;;30.88;20.13;;;;;;;-150.07;100.00;67148.00;4998388;28;20103;-77
2022/05/22 01:54:20;;;;;;;28.33;19.20;;;;;;;-150.07;100.00;67148.00;5010985;28;20399;-77
2022/05/22 01:56:46;;;;;;;30.00;21.92;;;;;;;-150.07;100.00;67148.00;5011927;28;20032;-77
2022/05/22 01:59:13;;;;;;;25.75;20.55;;;;;;;-150.07;100.00;67148.00;5012077;28;20084;-77
2022/05/22 02:01:40;;;;;;;28.35;20.30;;;;;;;-150.07;100.00;67148.00;5011868;28;20030;-77
2022/05/22 02:04:07;;;;;;;27.45;19.30;;;;;;;-150.07;100.00;67148.00;5011852;28;20080;-77
2022/05/22 02:06:35;;;;;;;23.60;19.80;;;;;;;-150.07;100.00;67148.00;5011777;28;20026;-79
2022/05/22 02:09:02;;;;;;;27.85;21.70;;;;;;;-150.07;100.00;67148.00;5013472;28;20360;-77
2022/05/22 02:11:28;;;;;;;27.38;22.23;;;;;;;-150.07;100.00;67148.00;5023949;28;20034;-77
2022/05/22 02:13:55;;;;;;;23.92;19.17;;;;;;;-150.07;100.00;67148.00;5031480;28;20033;-77
2022/05/22 02:16:22;;;;;;;25.80;20.02;;;;;;;-150.07;100.00;67148.00;5018030;28;20037;-77
2022/05/22 02:18:49;;;;;;;27.85;16.95;;;;;;;-150.07;100.00;67148.00;5011969;28;20022;-78
2022/05/22 02:21:16;;;;;;;22.48;17.45;;;;;;;-150.07;100.00;67148.00;5010195;28;20028;-78
2022/05/22 02:23:43;;;;;;;28.73;18.80;;;;;;;-150.07;100.00;67148.00;5017039;28;20061;-77
2022/05/22 02:26:11;;;;;;;27.55;19.02;;;;;;;-150.07;100.00;67148.00;5010349;28;20060;-77
2022/05/22 02:28:39;;;;;;;24.35;17.92;;;;;;;-150.07;100.00;67148.00;5010206;28;20556;-77
2022/05/22 02:31:08;;;;;;;19.33;14.57;;;;;;;-150.07;100.00;67148.00;5012388;28;20033;-77
2022/05/22 02:33:35;;;;;;;18.35;13.27;;;;;;;-150.07;100.00;67148.00;5010729;28;20025;-77
2022/05/22 02:36:03;;;;;;;23.52;12.27;;;;;;;-150.07;100.00;67148.00;5011906;28;20387;-78
2022/05/22 02:38:30;;;;;;;17.90;11.70;;;;;;;-150.07;100.00;67148.00;5011422;28;21450;-76
2022/05/22 02:40:59;;;;;;;18.10;12.52;;;;;;;-150.07;100.00;67148.00;5011936;28;20034;-77
2022/05/22 02:43:26;;;;;;;15.00;11.88;;;;;;;-150.07;100.00;67148.00;5012321;28;20030;-79
2022/05/22 02:45:52;;;;;;;13.77;10.73;;;;;;;-150.07;100.00;67148.00;5012611;28;20022;-77
2022/05/22 02:48:20;;;;;;;18.85;10.73;;;;;;;-150.07;100.00;67148.00;5011748;28;20033;-78
2022/05/22 02:50:47;;;;;;;19.77;12.50;;;;;;;-150.07;100.00;67148.00;5010862;28;20034;-77
2022/05/22 02:53:14;;;;;;;20.48;13.73;;;;;;;-150.07;100.00;67148.00;5010916;28;20030;-81
2022/05/22 02:55:43;;;;;;;22.98;14.63;;;;;;;-150.07;100.00;67148.00;5012744;28;20091;-77
2022/05/22 02:58:11;;;;;;;13.07;10.13;;;;;;;-150.07;100.00;67148.00;5012266;28;20063;-77
2022/05/22 03:00:38;;;;;;;16.50;13.40;;;;;;;-150.07;100.00;67148.00;5012373;28;20509;-76
2022/05/22 03:03:05;;;;;;;22.52;12.45;;;;;;;-150.07;100.00;67148.00;5009742;28;20076;-78
2022/05/22 03:08:17;;;;;;;18.00;14.05;;;;;;;-150.07;100.00;67148.00;4992095;28;20149;-78
2022/05/22 03:10:44;;;;;;;20.30;13.50;;;;;;;-150.07;100.00;67148.00;4992146;28;20019;-78
2022/05/22 03:13:13;;;;;;;17.40;14.38;;;;;;;-150.07;100.00;67148.00;4994789;28;20043;-77
2022/05/22 03:15:40;;;;;;;19.83;13.95;;;;;;;-150.07;100.00;67148.00;4992770;28;20498;-77
2022/05/22 03:18:08;;;;;;;20.60;14.52;;;;;;;-150.07;100.00;67148.00;4991840;28;20038;-78
2022/05/22 03:20:35;;;;;;;21.58;13.30;;;;;;;-150.07;100.00;67148.00;4995509;28;20518;-82
2022/05/22 03:23:02;;;;;;;21.08;15.10;;;;;;;-150.07;100.00;67148.00;5009198;28;20045;-78
2022/05/22 03:25:29;;;;;;;19.95;14.07;;;;;;;-150.07;100.00;67148.00;4991886;28;20022;-80
2022/05/22 03:27:55;;;;;;;20.63;14.73;;;;;;;-150.07;100.00;67148.00;5009033;28;20037;-80
2022/05/22 03:30:22;;;;;;;18.40;14.10;;;;;;;-150.07;100.00;67148.00;5011194;28;20112;-82
2022/05/22 03:32:49;;;;;;;22.33;14.55;;;;;;;-150.07;100.00;67148.00;5011428;28;20030;-79
2022/05/22 03:35:16;;;;;;;19.27;14.15;;;;;;;-150.07;100.00;67148.00;4994909;28;20048;-79
2022/05/22 03:37:44;;;;;;;22.30;14.80;;;;;;;-150.07;100.00;67148.00;5006962;28;20340;-79
2022/05/22 03:40:13;;;;;;;24.42;15.05;;;;;;;-150.07;100.00;67148.00;4991907;28;20388;-78
2022/05/22 03:42:40;;;;;;;17.67;14.18;;;;;;;-150.07;100.00;67148.00;4998566;28;20038;-79
2022/05/22 03:45:08;;;;;;;20.35;13.48;;;;;;;-150.07;100.00;67148.00;5009995;28;20033;-79
2022/05/22 03:47:35;;;;;;;26.42;16.23;;;;;;;-150.07;100.00;67148.00;5011415;28;20030;-79
2022/05/22 03:50:04;;;;;;;23.20;15.38;;;;;;;-150.07;100.00;67148.00;5011186;28;20030;-79
2022/05/22 03:52:42;;;;;;;22.60;16.75;;;;;;;-150.07;100.00;67148.00;5010976;28;20030;-78
2022/05/22 03:55:12;;;;;;;26.33;18.15;;;;;;;-150.07;100.00;67148.00;4996970;28;20041;-77
2022/05/22 03:57:39;;;;;;;24.38;17.77;;;;;;;-150.07;100.00;67148.00;5010220;28;20038;-80
2022/05/22 04:00:11;;;;;;;32.78;18.40;;;;;;;-150.07;100.00;67148.00;5010556;28;20026;-78
2022/05/22 04:02:38;;;;;;;23.55;16.95;;;;;;;-150.07;100.00;67148.00;5010586;28;20018;-78
2022/05/22 04:05:08;;;;;;;23.52;17.27;;;;;;;-150.07;100.00;67148.00;5003569;28;20525;-78
2022/05/22 04:07:40;;;;;;;24.50;16.63;;;;;;;-150.07;100.00;67148.00;5009953;28;20037;-77
2022/05/22 04:10:08;;;;;;;23.50;15.32;;;;;;;-150.07;100.00;67148.00;5017580;28;20536;-80
2022/05/22 04:12:36;;;;;;;24.15;16.88;;;;;;;-150.07;100.00;67148.00;5010617;28;20071;-78
2022/05/22 04:15:05;;;;;;;22.83;15.65;;;;;;;-150.07;100.00;67148.00;5009325;28;20491;-77
2022/05/22 04:17:31;;;;;;;25.17;15.98;;;;;;;-150.07;100.00;67148.00;5013376;28;20040;-76
2022/05/22 04:19:58;;;;;;;20.30;15.85;;;;;;;-150.07;100.00;67148.00;5014448;28;20061;-77
2022/05/22 04:22:25;;;;;;;21.90;17.00;;;;;;;-150.07;100.00;67148.00;5015525;28;20076;-77
2022/05/22 04:27:39;;;;;;;26.23;16.70;;;;;;;-150.07;100.00;67148.00;5006485;28;20060;-78
2022/05/22 04:30:08;;;;;;;26.77;16.95;;;;;;;-150.07;100.00;67148.00;5015153;28;20061;-79
2022/05/22 04:32:35;;;;;;;28.48;18.02;;;;;;;-150.07;100.00;67148.00;5014538;28;20057;-78
2022/05/22 04:35:02;;;;;;;24.33;18.55;;;;;;;-150.07;100.00;67148.00;5008596;28;20033;-83
2022/05/22 04:37:28;;;;;;;19.63;14.27;;;;;;;-150.07;100.00;67148.00;4998043;28;20026;-78
2022/05/22 04:39:55;;;;;;;26.38;16.63;;;;;;;-150.07;100.00;67148.00;4999068;28;20459;-78
2022/05/22 04:42:22;;;;;;;26.33;16.52;;;;;;;-150.07;100.00;67148.00;5013087;28;20070;-78
2022/05/22 04:44:49;;;;;;;30.52;19.50;;;;;;;-150.07;100.00;67148.00;5009568;28;20022;-77
2022/05/22 04:47:16;;;;;;;22.83;17.73;;;;;;;-150.07;100.00;67148.00;5011773;28;20034;-79
2022/05/22 04:49:43;;;;;;;25.15;15.98;;;;;;;-150.07;100.00;67148.00;5014003;28;20386;-80
2022/05/22 04:52:10;;;;;;;29.35;16.65;;;;;;;-150.07;100.00;67148.00;5014081;28;20030;-79
2022/05/22 04:54:36;;;;;;;23.83;16.30;;;;;;;-150.07;100.00;67148.00;5013886;28;20467;-79
2022/05/22 04:57:04;;;;;;;25.13;16.73;;;;;;;-150.07;100.00;67148.00;5009554;28;20103;-78
2022/05/22 04:59:31;;;;;;;25.65;16.02;;;;;;;-150.07;100.00;67148.00;5019483;28;20474;-77
2022/05/22 05:01:57;;;;;;;23.83;14.35;;;;;;;-150.07;100.00;67148.00;5030158;28;20037;-78
2022/05/22 05:04:24;;;;;;;18.08;13.48;;;;;;;-150.07;100.00;67148.00;5012350;28;20026;-79
2022/05/22 05:06:52;;;;;;;20.45;14.00;;;;;;;-150.07;100.00;67148.00;5011258;28;20040;-80
2022/05/22 05:09:21;;;;;;;20.42;13.95;;;;;;;-150.07;100.00;67148.00;5011824;28;20487;-82
2022/05/22 05:11:48;;;;;;;19.65;13.70;;;;;;;-150.07;100.00;67148.00;5011753;28;20144;-82
2022/05/22 05:14:15;;;;;;;21.02;13.98;;;;;;;-150.07;100.00;67148.00;5003722;28;20431;-82
2022/05/22 05:16:42;;;;;;;26.70;14.98;;;;;;;-150.07;100.00;67148.00;5002139;28;20030;-83
2022/05/22 05:19:09;;;;;;;17.90;12.32;;;;;;;-150.07;100.00;67148.00;5011484;28;20041;-82
2022/05/22 05:21:36;;;;;;;13.27;11.45;;;;;;;-150.07;100.00;67148.00;5011916;28;20104;-82
2022/05/22 05:24:04;;;;;;;20.65;12.80;;;;;;;-150.07;100.00;67148.00;5013143;28;20022;-79
2022/05/22 05:26:31;;;;;;;17.77;13.70;;;;;;;-150.07;100.00;67148.00;5004624;28;20030;-89
2022/05/22 05:28:58;;;;;;;21.60;13.43;;;;;;;-150.07;100.00;67148.00;4994525;28;20022;-79
2022/05/22 05:31:24;;;;;;;19.10;13.23;;;;;;;-150.07;100.00;67148.00;4994967;28;20018;-78
2022/05/22 05:33:51;;;;;;;20.10;14.20;;;;;;;-150.07;100.00;67148.00;5003821;28;20034;-78
2022/05/22 05:36:18;;;;;;;19.55;12.50;;;;;;;-150.07;100.00;67148.00;5003709;28;20050;-80
2022/05/22 05:38:45;;;;;;;25.52;13.55;;;;;;;-150.07;100.00;67148.00;4995111;28;20046;-82
2022/05/22 05:41:12;;;;;;;20.05;13.82;;;;;;;-150.07;100.00;67148.00;4995589;28;20034;-79
2022/05/22 05:43:40;;;;;;;18.60;12.88;;;;;;;-150.07;100.00;67148.00;4993970;28;20033;-79
2022/05/22 05:46:10;;;;;;;18.10;12.98;;;;;;;-150.07;100.00;67148.00;4996191;28;20026;-79
2022/05/22 05:48:37;;;;;;;23.25;14.07;;;;;;;-150.07;100.00;67148.00;4993404;28;20026;-80
2022/05/22 05:51:04;;;;;;;18.55;14.10;;;;;;;-150.07;100.00;67148.00;5004093;28;20026;-79
2022/05/22 05:53:31;;;;;;;19.35;13.73;;;;;;;-150.07;100.00;67148.00;5013366;28;20113;-80
2022/05/22 05:56:01;;;;;;;25.23;15.82;;;;;;;-150.07;100.00;67148.00;5004795;28;20057;-78
2022/05/22 05:58:27;;;;;;;;;;;;;;;-150.07;100.00;67148.00;5013858;28;20387;-82
2022/05/22 06:00:54;;;;;;;17.13;11.88;;;;;;;-150.07;100.00;67148.00;5011895;28;19913;-77
2022/05/22 06:03:21;;;;;;;20.60;13.02;;;;;;;-150.07;100.00;67148.00;5011451;28;20037;-80
2022/05/22 06:05:48;;;;;;;18.38;12.15;;;;;;;-150.07;100.00;67148.00;5010128;28;20014;-78
2022/05/22 06:08:15;;;;;;;29.17;13.43;;;;;;;-150.07;100.00;67148.00;5007930;28;20443;-85
2022/05/22 06:10:42;;;;;;;21.42;12.10;;;;;;;-150.07;100.00;67148.00;5011446;28;20041;-82
2022/05/22 06:13:09;;;;;;;20.50;13.95;;;;;;;-150.07;100.00;67148.00;5012830;28;20022;-80
2022/05/22 06:15:36;;;;;;;18.48;11.82;;;;;;;-150.07;100.00;67148.00;5011159;28;20037;-78
2022/05/22 06:18:03;;;;;;;17.70;13.10;;;;;;;-150.07;100.00;67148.00;4994576;28;20029;-79
2022/05/22 06:20:30;;;;;;;17.23;10.98;;;;;;;-150.07;100.00;67148.00;4994116;28;20057;-76
2022/05/22 06:22:56;;;;;;;24.80;12.95;;;;;;;-150.07;100.00;67148.00;4995420;28;20068;-77
2022/05/22 06:25:24;;;;;;;20.02;13.00;;;;;;;-150.07;100.00;67148.00;5009557;28;20041;-77
2022/05/22 06:27:51;;;;;;;23.77;12.50;;;;;;;-150.07;100.00;67148.00;5006030;28;20057;-77
2022/05/22 06:30:18;;;;;;;19.90;13.85;;;;;;;-150.07;100.00;67148.00;5012036;28;20037;-78
2022/05/22 06:32:45;;;;;;;21.02;13.10;;;;;;;-150.07;100.00;67148.00;5011598;28;20112;-77
2022/05/22 06:35:15;;;;;;;19.42;12.32;;;;;;;-150.07;100.00;67148.00;5011538;28;20032;-77
2022/05/22 06:37:41;;;;;;;16.73;11.32;;;;;;;-150.07;100.00;67148.00;4998218;28;20096;-81
2022/05/22 06:40:09;;;;;;;19.60;13.43;;;;;;;-150.07;100.00;67148.00;5007001;28;20387;-77
2022/05/22 06:42:42;;;;;;;14.20;12.73;;;;;;;-150.07;100.00;67148.00;5011053;28;20103;-77
2022/05/22 06:45:24;;;;;;;16.58;12.98;;;;;;;-150.07;100.00;67148.00;5011487;28;20513;-84
2022/05/22 06:47:52;;;;;;;18.35;12.93;;;;;;;-150.07;100.00;67148.00;5003251;28;20037;-78
2022/05/22 06:50:22;;;;;;;23.23;13.60;;;;;;;-150.07;100.00;67148.00;5009491;28;20034;-77
2022/05/22 06:52:52;;;;;;;18.23;13.35;;;;;;;-150.07;100.00;67148.00;5001195;28;20018;-78
2022/05/22 06:55:20;;;;;;;17.48;13.18;;;;;;;-150.07;100.00;67148.00;5003645;28;20026;-78
2022/05/22 06:57:47;;;;;;;19.38;12.25;;;;;;;-150.07;100.00;67148.00;5009924;28;20125;-78
2022/05/22 07:00:16;;;;;;;29.23;16.50;;;;;;;-150.07;100.00;67148.00;5011299;28;20053;-78
2022/05/22 07:02:43;;;;;;;33.50;15.13;;;;;;;-150.07;100.00;67148.00;5007794;28;20030;-78
2022/05/22 07:05:12;;;;;;;19.85;13.80;;;;;;;-150.07;100.00;67148.00;5011250;28;20062;-78
2022/05/22 07:07:39;;;;;;;22.33;15.30;;;;;;;-150.07;100.00;67148.00;5008138;28;20026;-78
2022/05/22 07:10:08;;;;;;;17.35;13.27;;;;;;;-150.07;100.00;67148.00;5011389;28;20026;-78
2022/05/22 07:12:35;;;;;;;21.27;12.73;;;;;;;-150.07;100.00;67148.00;5009095;28;20030;-77
2022/05/22 07:15:03;;;;;;;27.65;15.00;;;;;;;-150.07;100.00;67148.00;5007280;28;20056;-80
2022/05/22 07:17:31;;;;;;;22.75;13.30;;;;;;;-150.07;100.00;67148.00;5011158;28;20029;-77
2022/05/22 07:19:59;;;;;;;23.40;13.70;;;;;;;-150.07;100.00;67148.00;5011532;28;20088;-77
2022/05/22 07:22:27;;;;;;;24.67;14.43;;;;;;;-150.07;100.00;67148.00;5006849;28;20044;-78
2022/05/22 07:24:54;;;;;;;21.90;13.82;;;;;;;-150.07;100.00;67148.00;5008996;28;20026;-79
2022/05/22 07:27:21;;;;;;;22.23;14.35;;;;;;;-150.07;100.00;67148.00;5009846;28;20483;-77
2022/05/22 07:29:48;;;;;;;23.98;14.77;;;;;;;-150.07;100.00;67148.00;5016522;28;20033;-78
2022/05/22 07:32:15;;;;;;;22.75;16.13;;;;;;;-150.07;100.00;67148.00;5012396;28;20026;-77
2022/05/22 07:34:43;;;;;;;21.55;13.70;;;;;;;-150.07;100.00;67148.00;5010206;28;20026;-78
2022/05/22 07:37:11;;;;;;;23.20;15.60;;;;;;;-150.07;100.00;67148.00;5003237;28;20034;-78
2022/05/22 07:39:39;;;;;;;27.58;14.68;;;;;;;-150.07;100.00;67148.00;5010254;28;20145;-78
2022/05/22 07:42:06;;;;;;;23.38;15.25;;;;;;;-150.07;100.00;67148.00;5011018;28;20030;-78
2022/05/22 07:44:33;;;;;;;22.38;13.23;;;;;;;-150.07;100.00;67148.00;5000724;28;20022;-78
2022/05/22 07:47:00;;;;;;;26.23;15.70;;;;;;;-150.07;100.00;67148.00;5010967;28;20022;-79
2022/05/22 07:52:13;;;;;;;25.67;15.15;;;;;;;-150.07;100.00;67148.00;5013913;28;20878;-78
2022/05/22 07:54:41;;;;;;;23.35;14.27;;;;;;;-150.07;100.00;67148.00;5010965;28;20030;-78
2022/05/22 07:57:08;;;;;;;26.52;13.65;;;;;;;-150.07;100.00;67148.00;5008293;28;20040;-78
2022/05/22 07:59:37;;;;;;;24.15;13.65;;;;;;;-150.07;100.00;67148.00;5015170;28;20084;-79
2022/05/22 08:02:07;;;;;;;20.63;13.60;;;;;;;-150.07;100.00;67148.00;5014600;28;20033;-78
2022/05/22 08:04:35;;;;;;;25.45;15.40;;;;;;;-150.07;100.00;67148.00;5007920;28;20394;-78
2022/05/22 08:07:02;;;;;;;35.85;17.00;;;;;;;-150.07;100.00;67148.00;5014766;28;20394;-79
2022/05/22 08:09:29;;;;;;;21.98;15.52;;;;;;;-150.07;100.00;67148.00;5014637;28;20030;-78
2022/05/22 08:11:56;;;;;;;27.95;16.58;;;;;;;-150.07;100.00;67148.00;5014182;28;20430;-78
2022/05/22 08:14:22;;;;;;;25.83;16.65;;;;;;;-150.07;100.00;67148.00;5011458;28;20022;-78
2022/05/22 08:16:51;;;;;;;28.63;17.45;;;;;;;-150.07;100.00;67148.00;5014232;28;20034;-78
2022/05/22 08:19:19;;;;;;;34.08;18.70;;;;;;;-150.07;100.00;67148.00;5014255;28;20185;-77
2022/05/22 08:21:45;;;;;;;27.20;16.48;;;;;;;-150.07;100.00;67148.00;5012419;28;20033;-78
2022/05/22 08:24:12;;;;;;;26.23;17.08;;;;;;;-150.07;100.00;67148.00;5008415;28;20121;-78
2022/05/22 08:26:39;;;;;;;22.85;15.65;;;;;;;-150.07;100.00;67148.00;5005668;28;20056;-78
2022/05/22 08:29:06;;;;;;;26.33;16.50;;;;;;;-150.07;100.00;67148.00;5016160;28;20068;-78
2022/05/22 08:31:33;;;;;;;27.80;17.38;;;;;;;-150.07;100.00;67148.00;5016794;28;20038;-77
2022/05/22 08:34:00;;;;;;;25.20;18.52;;;;;;;-150.07;100.00;67148.00;5010269;28;20030;-79
2022/05/22 08:36:26;;;;;;;25.55;18.38;;;;;;;-150.07;100.00;67148.00;5011261;28;20041;-78
2022/05/22 08:38:56;;;;;;;28.90;18.75;;;;;;;-150.07;100.00;67148.00;5011426;28;20054;-78
2022/05/22 08:41:32;;;;;;;24.13;16.70;;;;;;;-150.07;100.00;67148.00;5013225;28;20029;-78
2022/05/22 08:44:14;;;;;;;28.98;17.60;;;;;;;-150.07;100.00;67148.00;5009807;28;20029;-77
2022/05/22 08:46:57;;;;;;;24.90;16.58;;;;;;;-150.07;100.00;67148.00;4999885;28;20038;-78
2022/05/22 08:49:31;;;;;;;22.25;15.60;;;;;;;-150.07;100.00;67148.00;5011253;28;20503;-78
2022/05/22 08:52:10;;;;;;;27.52;16.95;;;;;;;-150.07;100.00;67148.00;5012797;28;20038;-78
2022/05/22 08:54:42;;;;;;;31.40;18.88;;;;;;;-150.07;100.00;67148.00;5009688;28;20071;-78
2022/05/22 09:00:16;;;;;;;34.78;19.05;;;;;;;-150.07;100.00;67148.00;5009859;28;20111;-78
2022/05/22 09:03:24;;;;;;;29.73;19.13;;;;;;;-150.07;100.00;67148.00;5010606;28;20483;-77
2022/05/22 09:05:58;;;;;;;28.33;17.73;;;;;;;-150.07;100.00;67148.00;4998026;28;20064;-78
2022/05/22 09:08:37;;;;;;;25.58;17.63;;;;;;;-150.07;100.00;67148.00;5011598;28;20037;-78
2022/05/22 09:11:25;;;;;;;28.95;17.77;;;;;;;-150.07;100.00;67148.00;5012576;28;20129;-77
2022/05/22 09:14:29;;;;;;;27.73;17.98;;;;;;;-150.07;100.00;67148.00;5012450;28;20445;-78
2022/05/22 09:17:07;;;;;;;34.03;19.85;;;;;;;-150.07;100.00;67148.00;5015153;28;20116;-78
2022/05/22 09:19:40;;;;;;;29.52;19.52;;;;;;;-150.07;100.00;67148.00;5011998;28;20044;-78
2022/05/22 09:22:30;;;;;;;33.58;18.75;;;;;;;-150.07;100.00;67148.00;5012149;28;20026;-78
2022/05/22 09:25:32;;;;;;;38.78;18.25;;;;;;;-150.07;100.00;67148.00;5004598;28;20080;-79
2022/05/22 09:28:27;;;;;;;31.65;19.13;;;;;;;-150.07;100.00;67148.00;5007923;28;20503;-78
2022/05/22 09:31:13;;;;;;;28.20;19.95;;;;;;;-150.07;100.00;67148.00;5012371;28;20073;-78
2022/05/22 09:33:51;;;;;;;33.13;19.58;;;;;;;-150.07;100.00;67148.00;5012597;28;20490;-78
2022/05/22 09:36:37;;;;;;;30.63;20.17;;;;;;;-150.07;100.00;67148.00;5003239;28;20100;-77
2022/05/22 09:39:33;;;;;;;30.17;20.48;;;;;;;-150.07;100.00;67148.00;5011799;28;20050;-79
2022/05/22 09:42:09;;;;;;;33.20;20.48;;;;;;;-150.07;100.00;67148.00;5012042;28;20030;-78
2022/05/22 09:44:48;;;;;;;28.73;19.45;;;;;;;-150.07;100.00;67148.00;5010155;28;20431;-78
2022/05/22 09:47:39;;;;;;;34.92;20.38;;;;;;;-150.07;100.00;67148.00;5002691;28;20042;-78
2022/05/22 09:50:28;;;;;;;35.78;20.75;;;;;;;-150.07;100.00;67148.00;5009114;28;20037;-78
2022/05/22 09:53:05;;;;;;;36.50;21.20;;;;;;;-150.07;100.00;67148.00;5011936;28;20075;-77
2022/05/22 09:55:44;;;;;;;33.38;19.42;;;;;;;-150.07;100.00;67148.00;5009391;28;20292;-83
2022/05/22 09:58:39;;;;;;;33.80;21.17;;;;;;;-150.07;100.00;67148.00;5012292;28;20098;-78
2022/05/22 10:01:19;;;;;;;35.63;20.58;;;;;;;-150.07;100.00;67148.00;5011543;28;20709;-77
2022/05/22 10:04:03;;;;;;;36.38;23.52;;;;;;;-150.07;100.00;67148.00;5004634;28;20396;-77
2022/05/22 10:07:02;;;;;;;33.25;19.98;;;;;;;-150.07;100.00;67148.00;5002192;28;20064;-77
2022/05/22 10:09:50;;;;;;;47.25;24.65;;;;;;;-150.07;100.00;67148.00;5011590;28;20040;-77
2022/05/22 10:12:16;;;;;;;36.80;21.60;;;;;;;-150.07;100.00;67148.00;5010758;28;20022;-77
2022/05/22 10:14:50;;;;;;;35.58;20.63;;;;;;;-150.07;100.00;67148.00;5010618;28;20437;-78
2022/05/22 10:17:38;;;;;;;36.35;20.80;;;;;;;-150.07;100.00;67148.00;5008532;28;20026;-76
2022/05/22 10:20:14;;;;;;;39.53;20.73;;;;;;;-150.07;100.00;67148.00;5012174;28;20022;-76
2022/05/22 10:22:50;;;;;;;31.13;21.13;;;;;;;-150.07;100.00;67148.00;5003932;28;20132;-79
2022/05/22 10:25:34;;;;;;;35.30;19.98;;;;;;;-150.07;100.00;67148.00;5011422;28;20018;-76
2022/05/22 10:28:01;;;;;;;31.40;22.50;;;;;;;-150.07;100.00;67148.00;5010248;28;20033;-78
2022/05/22 10:30:58;;;;;;;33.95;20.67;;;;;;;-150.07;100.00;67148.00;5004581;28;20117;-79
2022/05/22 10:33:40;;;;;;;32.65;20.00;;;;;;;-150.07;100.00;67148.00;4998700;28;20021;-76
2022/05/22 10:36:22;;;;;;;35.50;23.20;;;;;;;-150.07;100.00;67148.00;4997934;28;20075;-76
2022/05/22 10:39:00;;;;;;;30.15;20.48;;;;;;;-150.07;100.00;67148.00;4994566;28;20034;-78
2022/05/22 10:44:26;;;;;;;36.47;21.65;;;;;;;-150.07;100.00;67148.00;5000779;28;20036;-78
2022/05/22 10:47:02;;;;;;;36.63;22.92;;;;;;;-150.07;100.00;67148.00;4998892;28;20398;-77
2022/05/22 10:49:48;;;;;;;32.40;21.13;;;;;;;-150.07;100.00;67148.00;4998167;28;20026;-77
2022/05/22 10:52:24;;;;;;;35.20;22.67;;;;;;;-150.07;100.00;67148.00;5001999;28;21629;-77
2022/05/22 10:54:56;;;;;;;49.83;24.02;;;;;;;-150.07;100.00;67148.00;4998215;28;20152;-77
2022/05/22 10:57:29;;;;;;;36.63;20.88;;;;;;;-150.07;100.00;67148.00;4997170;28;20026;-83
2022/05/22 10:59:57;;;;;;;31.60;22.85;;;;;;;-150.07;100.00;67148.00;5009315;28;20006;-76
2022/05/22 11:02:32;;;;;;;31.02;22.15;;;;;;;-150.07;100.00;67148.00;5012867;28;20085;-86
2022/05/22 11:05:02;;;;;;;32.83;22.42;;;;;;;-150.07;100.00;67148.00;5006789;28;20148;-85
2022/05/22 11:07:31;;;;;;;37.70;23.25;;;;;;;-150.07;100.00;67148.00;5013580;28;20112;-86
2022/05/22 11:10:17;;;;;;;33.23;23.07;;;;;;;-150.07;100.00;67148.00;5011971;28;20020;-86
2022/05/22 11:12:44;;;;;;;41.03;24.15;;;;;;;-150.07;100.00;67148.00;5005432;28;20084;-86
2022/05/22 11:15:27;;;;;;;43.95;22.90;;;;;;;-150.07;100.00;67148.00;5004464;28;20011;-88
2022/05/22 11:18:24;;;;;;;41.70;25.75;;;;;;;-150.07;100.00;67148.00;5009503;28;20037;-88
2022/05/22 11:21:11;;;;;;;34.65;25.00;;;;;;;-150.07;100.00;67148.00;5006779;28;20411;-86
2022/05/22 11:24:38;;;;;;;40.22;25.63;;;;;;;-150.07;100.00;67148.00;5009399;28;20041;-80
2022/05/22 11:27:06;;;;;;;43.47;23.27;;;;;;;-150.07;100.00;67148.00;5016550;28;20076;-86